sensor_id;sensor_type;location;lat;lon;timestamp;P1;durP1;ratioP1;P2;durP2;ratioP2
62582;SDS011;48641;51.676;5.808;2023-06-10T00:01:50;9.23;;;7.38;;
62582;SDS011;48641;51.676;5.808;2023-06-10T00:04:20;9.05;;;7.18;;
62582;SDS011;48641;51.676;5.808;2023-06-10T00:06:46;10.40;;;7.80;;
62582;SDS011;48641;51.676;5.808;2023-06-10T00:09:13;10.23;;;7.90;;
62582;SDS011;48641;51.676;5.808;2023-06-10T00:11:39;9.65;;;7.65;;
62582;SDS011;48641;51.676;5.808;2023-06-10T00:14:05;8.90;;;7.10;;
62582;SDS011;48641;51.676;5.808;2023-06-10T00:16:33;9.45;;;7.20;;
62582;SDS011;48641;51.676;5.808;2023-06-10T00:19:01;10.13;;;6.88;;
62582;SDS011;48641;51.676;5.808;2023-06-10T00:21:28;9.40;;;7.18;;
62582;SDS011;48641;51.676;5.808;2023-06-10T00:23:55;10.90;;;7.82;;
62582;SDS011;48641;51.676;5.808;2023-06-10T00:26:21;9.68;;;7.40;;
62582;SDS011;48641;51.676;5.808;2023-06-10T00:28:47;9.38;;;7.15;;
62582;SDS011;48641;51.676;5.808;2023-06-10T00:31:13;9.10;;;7.13;;
62582;SDS011;48641;51.676;5.808;2023-06-10T00:33:39;9.32;;;7.07;;
62582;SDS011;48641;51.676;5.808;2023-06-10T00:36:04;8.98;;;6.93;;
62582;SDS011;48641;51.676;5.808;2023-06-10T00:38:30;9.77;;;7.22;;
62582;SDS011;48641;51.676;5.808;2023-06-10T00:40:56;9.73;;;7.47;;
62582;SDS011;48641;51.676;5.808;2023-06-10T00:43:22;8.98;;;7.43;;
62582;SDS011;48641;51.676;5.808;2023-06-10T00:45:48;9.20;;;7.00;;
62582;SDS011;48641;51.676;5.808;2023-06-10T00:48:13;8.93;;;6.80;;
62582;SDS011;48641;51.676;5.808;2023-06-10T00:50:39;9.60;;;6.95;;
62582;SDS011;48641;51.676;5.808;2023-06-10T00:53:05;8.77;;;6.70;;
62582;SDS011;48641;51.676;5.808;2023-06-10T00:55:31;8.40;;;6.93;;
62582;SDS011;48641;51.676;5.808;2023-06-10T00:57:57;9.40;;;6.95;;
62582;SDS011;48641;51.676;5.808;2023-06-10T01:00:24;9.13;;;6.85;;
62582;SDS011;48641;51.676;5.808;2023-06-10T01:02:51;8.93;;;6.97;;
62582;SDS011;48641;51.676;5.808;2023-06-10T01:05:17;8.90;;;6.57;;
62582;SDS011;48641;51.676;5.808;2023-06-10T01:13:09;9.27;;;6.90;;
62582;SDS011;48641;51.676;5.808;2023-06-10T01:15:39;9.63;;;7.20;;
62582;SDS011;48641;51.676;5.808;2023-06-10T01:18:06;8.55;;;6.70;;
62582;SDS011;48641;51.676;5.808;2023-06-10T01:23:02;9.88;;;6.97;;
62582;SDS011;48641;51.676;5.808;2023-06-10T01:25:28;8.90;;;6.90;;
62582;SDS011;48641;51.676;5.808;2023-06-10T01:28:07;8.75;;;6.70;;
62582;SDS011;48641;51.676;5.808;2023-06-10T01:31:41;9.10;;;6.87;;
62582;SDS011;48641;51.676;5.808;2023-06-10T01:34:02;8.98;;;6.32;;
62582;SDS011;48641;51.676;5.808;2023-06-10T01:36:33;10.00;;;7.15;;
62582;SDS011;48641;51.676;5.808;2023-06-10T01:39:00;9.23;;;6.78;;
62582;SDS011;48641;51.676;5.808;2023-06-10T01:41:26;9.13;;;7.03;;
62582;SDS011;48641;51.676;5.808;2023-06-10T01:43:54;9.63;;;6.97;;
62582;SDS011;48641;51.676;5.808;2023-06-10T01:46:20;9.05;;;7.18;;
62582;SDS011;48641;51.676;5.808;2023-06-10T01:48:46;9.00;;;6.88;;
62582;SDS011;48641;51.676;5.808;2023-06-10T01:51:12;9.90;;;7.00;;
62582;SDS011;48641;51.676;5.808;2023-06-10T01:53:38;8.98;;;6.68;;
62582;SDS011;48641;51.676;5.808;2023-06-10T01:56:03;8.80;;;6.70;;
62582;SDS011;48641;51.676;5.808;2023-06-10T01:58:30;8.27;;;6.10;;
62582;SDS011;48641;51.676;5.808;2023-06-10T02:00:55;8.38;;;6.57;;
62582;SDS011;48641;51.676;5.808;2023-06-10T02:03:21;10.18;;;7.00;;
62582;SDS011;48641;51.676;5.808;2023-06-10T02:05:46;9.38;;;6.75;;
62582;SDS011;48641;51.676;5.808;2023-06-10T02:08:12;9.15;;;6.68;;
62582;SDS011;48641;51.676;5.808;2023-06-10T02:10:38;8.52;;;6.70;;
62582;SDS011;48641;51.676;5.808;2023-06-10T02:13:03;8.52;;;6.45;;
62582;SDS011;48641;51.676;5.808;2023-06-10T02:15:29;8.77;;;6.40;;
62582;SDS011;48641;51.676;5.808;2023-06-10T02:17:55;9.05;;;7.28;;
62582;SDS011;48641;51.676;5.808;2023-06-10T02:20:21;8.85;;;6.38;;
62582;SDS011;48641;51.676;5.808;2023-06-10T02:22:46;8.75;;;6.35;;
62582;SDS011;48641;51.676;5.808;2023-06-10T02:25:12;10.05;;;6.55;;
62582;SDS011;48641;51.676;5.808;2023-06-10T02:27:38;8.57;;;6.47;;
62582;SDS011;48641;51.676;5.808;2023-06-10T02:30:04;9.02;;;7.00;;
62582;SDS011;48641;51.676;5.808;2023-06-10T02:32:30;9.05;;;6.60;;
62582;SDS011;48641;51.676;5.808;2023-06-10T02:34:55;8.15;;;6.35;;
62582;SDS011;48641;51.676;5.808;2023-06-10T02:37:21;8.48;;;6.57;;
62582;SDS011;48641;51.676;5.808;2023-06-10T02:39:46;9.20;;;6.60;;
62582;SDS011;48641;51.676;5.808;2023-06-10T02:42:12;8.43;;;6.47;;
62582;SDS011;48641;51.676;5.808;2023-06-10T02:44:38;8.23;;;6.32;;
62582;SDS011;48641;51.676;5.808;2023-06-10T02:47:04;8.23;;;6.25;;
62582;SDS011;48641;51.676;5.808;2023-06-10T02:49:30;8.52;;;6.68;;
62582;SDS011;48641;51.676;5.808;2023-06-10T02:51:55;8.65;;;6.65;;
62582;SDS011;48641;51.676;5.808;2023-06-10T02:54:25;8.95;;;6.72;;
62582;SDS011;48641;51.676;5.808;2023-06-10T02:56:51;8.60;;;6.45;;
62582;SDS011;48641;51.676;5.808;2023-06-10T02:59:17;8.50;;;5.97;;
62582;SDS011;48641;51.676;5.808;2023-06-10T03:01:43;8.70;;;6.63;;
62582;SDS011;48641;51.676;5.808;2023-06-10T03:04:09;8.85;;;6.60;;
62582;SDS011;48641;51.676;5.808;2023-06-10T03:06:37;8.75;;;6.28;;
62582;SDS011;48641;51.676;5.808;2023-06-10T03:09:03;7.90;;;5.85;;
62582;SDS011;48641;51.676;5.808;2023-06-10T03:11:29;8.48;;;6.22;;
62582;SDS011;48641;51.676;5.808;2023-06-10T03:13:56;8.40;;;6.03;;
62582;SDS011;48641;51.676;5.808;2023-06-10T03:16:22;8.20;;;6.30;;
62582;SDS011;48641;51.676;5.808;2023-06-10T03:18:50;9.38;;;6.45;;
62582;SDS011;48641;51.676;5.808;2023-06-10T03:21:16;8.23;;;6.18;;
62582;SDS011;48641;51.676;5.808;2023-06-10T03:23:41;8.93;;;6.40;;
62582;SDS011;48641;51.676;5.808;2023-06-10T03:26:07;8.65;;;6.45;;
62582;SDS011;48641;51.676;5.808;2023-06-10T03:28:33;8.85;;;6.40;;
62582;SDS011;48641;51.676;5.808;2023-06-10T03:30:58;7.65;;;5.95;;
62582;SDS011;48641;51.676;5.808;2023-06-10T03:33:24;8.00;;;5.95;;
62582;SDS011;48641;51.676;5.808;2023-06-10T03:35:52;9.02;;;6.65;;
62582;SDS011;48641;51.676;5.808;2023-06-10T03:38:18;7.90;;;5.93;;
62582;SDS011;48641;51.676;5.808;2023-06-10T03:40:44;8.20;;;6.00;;
62582;SDS011;48641;51.676;5.808;2023-06-10T03:43:10;7.90;;;6.05;;
62582;SDS011;48641;51.676;5.808;2023-06-10T03:45:35;8.27;;;6.20;;
62582;SDS011;48641;51.676;5.808;2023-06-10T03:48:01;8.68;;;6.13;;
62582;SDS011;48641;51.676;5.808;2023-06-10T03:50:28;8.38;;;6.38;;
62582;SDS011;48641;51.676;5.808;2023-06-10T03:52:54;8.45;;;6.20;;
62582;SDS011;48641;51.676;5.808;2023-06-10T03:55:19;7.80;;;5.90;;
62582;SDS011;48641;51.676;5.808;2023-06-10T03:57:46;7.88;;;6.15;;
62582;SDS011;48641;51.676;5.808;2023-06-10T04:00:13;8.27;;;6.05;;
62582;SDS011;48641;51.676;5.808;2023-06-10T04:02:40;8.85;;;6.40;;
62582;SDS011;48641;51.676;5.808;2023-06-10T04:05:14;8.23;;;6.30;;
62582;SDS011;48641;51.676;5.808;2023-06-10T04:07:43;7.97;;;6.13;;
62582;SDS011;48641;51.676;5.808;2023-06-10T04:10:10;8.15;;;6.00;;
62582;SDS011;48641;51.676;5.808;2023-06-10T04:12:37;8.30;;;6.10;;
62582;SDS011;48641;51.676;5.808;2023-06-10T04:15:03;8.98;;;6.20;;
62582;SDS011;48641;51.676;5.808;2023-06-10T04:17:29;8.73;;;6.22;;
62582;SDS011;48641;51.676;5.808;2023-06-10T04:19:55;7.85;;;6.00;;
62582;SDS011;48641;51.676;5.808;2023-06-10T04:22:21;8.48;;;6.15;;
62582;SDS011;48641;51.676;5.808;2023-06-10T04:24:47;8.32;;;6.30;;
62582;SDS011;48641;51.676;5.808;2023-06-10T04:27:13;8.68;;;6.40;;
62582;SDS011;48641;51.676;5.808;2023-06-10T04:29:39;7.93;;;6.05;;
62582;SDS011;48641;51.676;5.808;2023-06-10T04:32:05;8.10;;;5.70;;
62582;SDS011;48641;51.676;5.808;2023-06-10T04:34:32;8.18;;;5.90;;
62582;SDS011;48641;51.676;5.808;2023-06-10T04:36:58;8.73;;;5.85;;
62582;SDS011;48641;51.676;5.808;2023-06-10T04:39:24;8.77;;;6.00;;
62582;SDS011;48641;51.676;5.808;2023-06-10T04:41:49;8.48;;;5.65;;
62582;SDS011;48641;51.676;5.808;2023-06-10T04:44:15;8.05;;;6.07;;
62582;SDS011;48641;51.676;5.808;2023-06-10T04:46:41;8.13;;;5.65;;
62582;SDS011;48641;51.676;5.808;2023-06-10T04:49:06;8.80;;;6.20;;
62582;SDS011;48641;51.676;5.808;2023-06-10T04:51:32;8.18;;;6.07;;
62582;SDS011;48641;51.676;5.808;2023-06-10T04:53:59;8.80;;;5.90;;
62582;SDS011;48641;51.676;5.808;2023-06-10T04:56:28;8.30;;;6.10;;
62582;SDS011;48641;51.676;5.808;2023-06-10T04:58:55;8.00;;;5.72;;
62582;SDS011;48641;51.676;5.808;2023-06-10T05:01:21;7.93;;;6.00;;
62582;SDS011;48641;51.676;5.808;2023-06-10T05:03:47;8.20;;;5.90;;
62582;SDS011;48641;51.676;5.808;2023-06-10T05:06:13;7.90;;;5.70;;
62582;SDS011;48641;51.676;5.808;2023-06-10T05:08:38;7.75;;;5.80;;
62582;SDS011;48641;51.676;5.808;2023-06-10T05:11:04;8.05;;;5.57;;
62582;SDS011;48641;51.676;5.808;2023-06-10T05:13:29;8.38;;;5.95;;
62582;SDS011;48641;51.676;5.808;2023-06-10T05:15:55;8.02;;;5.70;;
62582;SDS011;48641;51.676;5.808;2023-06-10T05:18:20;8.23;;;5.95;;
62582;SDS011;48641;51.676;5.808;2023-06-10T05:20:46;7.88;;;5.50;;
62582;SDS011;48641;51.676;5.808;2023-06-10T05:23:12;7.88;;;5.97;;
62582;SDS011;48641;51.676;5.808;2023-06-10T05:25:37;7.63;;;5.63;;
62582;SDS011;48641;51.676;5.808;2023-06-10T05:28:03;8.68;;;5.72;;
62582;SDS011;48641;51.676;5.808;2023-06-10T05:30:29;8.00;;;5.80;;
62582;SDS011;48641;51.676;5.808;2023-06-10T05:32:54;8.48;;;6.03;;
62582;SDS011;48641;51.676;5.808;2023-06-10T05:35:21;7.70;;;5.53;;
62582;SDS011;48641;51.676;5.808;2023-06-10T05:37:47;7.65;;;5.65;;
62582;SDS011;48641;51.676;5.808;2023-06-10T05:40:13;7.97;;;5.68;;
62582;SDS011;48641;51.676;5.808;2023-06-10T05:42:39;8.23;;;5.65;;
62582;SDS011;48641;51.676;5.808;2023-06-10T05:45:05;7.60;;;5.38;;
62582;SDS011;48641;51.676;5.808;2023-06-10T05:47:34;7.47;;;5.13;;
62582;SDS011;48641;51.676;5.808;2023-06-10T05:50:00;8.07;;;5.75;;
62582;SDS011;48641;51.676;5.808;2023-06-10T05:52:25;7.63;;;5.40;;
62582;SDS011;48641;51.676;5.808;2023-06-10T05:54:51;7.70;;;5.50;;
62582;SDS011;48641;51.676;5.808;2023-06-10T05:57:17;8.00;;;5.80;;
62582;SDS011;48641;51.676;5.808;2023-06-10T05:59:42;8.48;;;5.65;;
62582;SDS011;48641;51.676;5.808;2023-06-10T06:02:08;7.63;;;5.28;;
62582;SDS011;48641;51.676;5.808;2023-06-10T06:04:34;7.70;;;5.22;;
62582;SDS011;48641;51.676;5.808;2023-06-10T06:06:59;7.53;;;5.20;;
62582;SDS011;48641;51.676;5.808;2023-06-10T06:09:25;7.80;;;5.13;;
62582;SDS011;48641;51.676;5.808;2023-06-10T06:11:51;7.70;;;5.22;;
62582;SDS011;48641;51.676;5.808;2023-06-10T06:14:16;7.78;;;5.32;;
62582;SDS011;48641;51.676;5.808;2023-06-10T06:16:42;7.55;;;5.22;;
62582;SDS011;48641;51.676;5.808;2023-06-10T06:19:08;7.53;;;5.20;;
62582;SDS011;48641;51.676;5.808;2023-06-10T06:21:34;8.10;;;5.50;;
62582;SDS011;48641;51.676;5.808;2023-06-10T06:24:00;7.35;;;4.97;;
62582;SDS011;48641;51.676;5.808;2023-06-10T06:26:25;7.88;;;5.20;;
62582;SDS011;48641;51.676;5.808;2023-06-10T06:28:51;7.43;;;5.15;;
62582;SDS011;48641;51.676;5.808;2023-06-10T06:31:17;7.43;;;5.30;;
62582;SDS011;48641;51.676;5.808;2023-06-10T06:33:43;7.43;;;5.10;;
62582;SDS011;48641;51.676;5.808;2023-06-10T06:36:08;7.70;;;5.28;;
62582;SDS011;48641;51.676;5.808;2023-06-10T06:38:34;7.47;;;5.03;;
62582;SDS011;48641;51.676;5.808;2023-06-10T06:40:59;7.80;;;5.25;;
62582;SDS011;48641;51.676;5.808;2023-06-10T06:43:28;7.60;;;5.15;;
62582;SDS011;48641;51.676;5.808;2023-06-10T06:45:55;7.00;;;4.80;;
62582;SDS011;48641;51.676;5.808;2023-06-10T06:48:22;7.00;;;4.88;;
62582;SDS011;48641;51.676;5.808;2023-06-10T06:50:48;6.97;;;4.70;;
62582;SDS011;48641;51.676;5.808;2023-06-10T06:53:13;7.70;;;5.07;;
62582;SDS011;48641;51.676;5.808;2023-06-10T06:55:39;7.80;;;4.97;;
62582;SDS011;48641;51.676;5.808;2023-06-10T06:58:05;7.40;;;5.13;;
62582;SDS011;48641;51.676;5.808;2023-06-10T07:00:31;7.25;;;5.10;;
62582;SDS011;48641;51.676;5.808;2023-06-10T07:02:57;9.32;;;6.38;;
62582;SDS011;48641;51.676;5.808;2023-06-10T07:05:23;8.60;;;5.50;;
62582;SDS011;48641;51.676;5.808;2023-06-10T07:07:52;7.43;;;5.07;;
62582;SDS011;48641;51.676;5.808;2023-06-10T07:10:23;9.88;;;5.00;;
62582;SDS011;48641;51.676;5.808;2023-06-10T07:12:49;8.07;;;5.25;;
62582;SDS011;48641;51.676;5.808;2023-06-10T07:15:15;8.13;;;5.65;;
62582;SDS011;48641;51.676;5.808;2023-06-10T07:17:41;7.80;;;4.80;;
62582;SDS011;48641;51.676;5.808;2023-06-10T07:20:07;8.88;;;5.20;;
62582;SDS011;48641;51.676;5.808;2023-06-10T07:22:33;8.27;;;5.72;;
62582;SDS011;48641;51.676;5.808;2023-06-10T07:24:59;9.55;;;4.97;;
62582;SDS011;48641;51.676;5.808;2023-06-10T07:27:24;8.88;;;5.55;;
62582;SDS011;48641;51.676;5.808;2023-06-10T07:29:50;7.15;;;4.80;;
62582;SDS011;48641;51.676;5.808;2023-06-10T07:32:16;9.00;;;5.10;;
62582;SDS011;48641;51.676;5.808;2023-06-10T07:34:43;7.55;;;5.35;;
62582;SDS011;48641;51.676;5.808;2023-06-10T07:37:08;7.20;;;5.15;;
62582;SDS011;48641;51.676;5.808;2023-06-10T07:39:34;8.27;;;4.93;;
62582;SDS011;48641;51.676;5.808;2023-06-10T07:42:00;8.85;;;5.30;;
62582;SDS011;48641;51.676;5.808;2023-06-10T07:44:26;7.00;;;4.68;;
62582;SDS011;48641;51.676;5.808;2023-06-10T07:46:51;8.27;;;5.20;;
62582;SDS011;48641;51.676;5.808;2023-06-10T07:49:17;6.70;;;4.57;;
62582;SDS011;48641;51.676;5.808;2023-06-10T07:51:42;7.50;;;4.90;;
62582;SDS011;48641;51.676;5.808;2023-06-10T07:54:08;7.03;;;4.53;;
62582;SDS011;48641;51.676;5.808;2023-06-10T07:56:34;8.23;;;4.55;;
62582;SDS011;48641;51.676;5.808;2023-06-10T07:58:59;7.65;;;4.90;;
62582;SDS011;48641;51.676;5.808;2023-06-10T08:01:25;7.60;;;4.90;;
62582;SDS011;48641;51.676;5.808;2023-06-10T08:03:51;7.13;;;4.75;;
62582;SDS011;48641;51.676;5.808;2023-06-10T08:06:16;7.63;;;4.75;;
62582;SDS011;48641;51.676;5.808;2023-06-10T08:08:42;7.63;;;4.60;;
62582;SDS011;48641;51.676;5.808;2023-06-10T08:11:09;7.22;;;4.78;;
62582;SDS011;48641;51.676;5.808;2023-06-10T08:13:36;6.88;;;4.63;;
62582;SDS011;48641;51.676;5.808;2023-06-10T08:16:02;7.22;;;4.78;;
62582;SDS011;48641;51.676;5.808;2023-06-10T08:18:28;7.13;;;4.68;;
62582;SDS011;48641;51.676;5.808;2023-06-10T08:20:53;8.10;;;5.60;;
62582;SDS011;48641;51.676;5.808;2023-06-10T08:23:19;7.47;;;4.80;;
62582;SDS011;48641;51.676;5.808;2023-06-10T08:25:45;6.95;;;4.53;;
62582;SDS011;48641;51.676;5.808;2023-06-10T08:28:10;7.85;;;4.70;;
62582;SDS011;48641;51.676;5.808;2023-06-10T08:30:36;7.68;;;4.65;;
62582;SDS011;48641;51.676;5.808;2023-06-10T08:33:02;6.30;;;3.85;;
62582;SDS011;48641;51.676;5.808;2023-06-10T08:35:27;7.03;;;4.45;;
62582;SDS011;48641;51.676;5.808;2023-06-10T08:37:53;7.60;;;4.75;;
62582;SDS011;48641;51.676;5.808;2023-06-10T08:40:18;6.80;;;4.10;;
62582;SDS011;48641;51.676;5.808;2023-06-10T08:45:32;7.15;;;4.55;;
62582;SDS011;48641;51.676;5.808;2023-06-10T08:48:00;6.82;;;4.30;;
62582;SDS011;48641;51.676;5.808;2023-06-10T08:50:35;6.72;;;4.13;;
62582;SDS011;48641;51.676;5.808;2023-06-10T08:53:02;7.10;;;4.50;;
62582;SDS011;48641;51.676;5.808;2023-06-10T08:55:33;7.03;;;4.43;;
62582;SDS011;48641;51.676;5.808;2023-06-10T08:58:02;7.40;;;4.70;;
62582;SDS011;48641;51.676;5.808;2023-06-10T09:00:28;6.80;;;4.20;;
62582;SDS011;48641;51.676;5.808;2023-06-10T09:02:55;8.00;;;4.75;;
62582;SDS011;48641;51.676;5.808;2023-06-10T09:05:22;7.13;;;4.38;;
62582;SDS011;48641;51.676;5.808;2023-06-10T09:07:48;6.75;;;4.10;;
62582;SDS011;48641;51.676;5.808;2023-06-10T09:10:14;7.00;;;4.35;;
62582;SDS011;48641;51.676;5.808;2023-06-10T09:12:40;6.47;;;4.25;;
62582;SDS011;48641;51.676;5.808;2023-06-10T09:15:06;6.47;;;3.85;;
62582;SDS011;48641;51.676;5.808;2023-06-10T09:17:32;6.60;;;4.50;;
62582;SDS011;48641;51.676;5.808;2023-06-10T09:19:59;7.00;;;4.40;;
62582;SDS011;48641;51.676;5.808;2023-06-10T09:22:27;7.00;;;4.40;;
62582;SDS011;48641;51.676;5.808;2023-06-10T09:25:03;7.07;;;4.35;;
62582;SDS011;48641;51.676;5.808;2023-06-10T09:27:30;6.03;;;3.72;;
62582;SDS011;48641;51.676;5.808;2023-06-10T09:29:57;6.82;;;4.32;;
62582;SDS011;48641;51.676;5.808;2023-06-10T09:32:23;6.80;;;4.20;;
62582;SDS011;48641;51.676;5.808;2023-06-10T09:34:49;6.38;;;4.00;;
62582;SDS011;48641;51.676;5.808;2023-06-10T09:40:00;6.15;;;4.03;;
62582;SDS011;48641;51.676;5.808;2023-06-10T09:42:34;7.15;;;4.07;;
62582;SDS011;48641;51.676;5.808;2023-06-10T09:45:01;6.35;;;3.72;;
62582;SDS011;48641;51.676;5.808;2023-06-10T09:47:31;6.53;;;4.00;;
62582;SDS011;48641;51.676;5.808;2023-06-10T09:49:56;6.55;;;3.85;;
62582;SDS011;48641;51.676;5.808;2023-06-10T09:52:22;6.57;;;4.00;;
62582;SDS011;48641;51.676;5.808;2023-06-10T09:54:49;7.15;;;4.18;;
62582;SDS011;48641;51.676;5.808;2023-06-10T09:57:17;6.43;;;4.20;;
62582;SDS011;48641;51.676;5.808;2023-06-10T09:59:43;6.80;;;4.20;;
62582;SDS011;48641;51.676;5.808;2023-06-10T10:02:16;6.30;;;3.95;;
62582;SDS011;48641;51.676;5.808;2023-06-10T10:04:43;6.65;;;3.90;;
62582;SDS011;48641;51.676;5.808;2023-06-10T10:07:09;7.05;;;4.28;;
62582;SDS011;48641;51.676;5.808;2023-06-10T10:09:36;8.73;;;5.28;;
62582;SDS011;48641;51.676;5.808;2023-06-10T10:12:15;8.20;;;5.35;;
62582;SDS011;48641;51.676;5.808;2023-06-10T10:14:45;7.97;;;5.20;;
62582;SDS011;48641;51.676;5.808;2023-06-10T10:17:14;7.57;;;5.00;;
62582;SDS011;48641;51.676;5.808;2023-06-10T10:19:43;7.20;;;4.17;;
62582;SDS011;48641;51.676;5.808;2023-06-10T10:22:19;7.70;;;4.35;;
62582;SDS011;48641;51.676;5.808;2023-06-10T10:24:53;7.55;;;4.70;;
62582;SDS011;48641;51.676;5.808;2023-06-10T10:27:28;7.38;;;4.28;;
62582;SDS011;48641;51.676;5.808;2023-06-10T10:29:58;7.32;;;4.47;;
62582;SDS011;48641;51.676;5.808;2023-06-10T10:32:35;7.95;;;4.45;;
62582;SDS011;48641;51.676;5.808;2023-06-10T10:37:34;6.40;;;3.97;;
62582;SDS011;48641;51.676;5.808;2023-06-10T10:40:01;7.45;;;4.13;;
62582;SDS011;48641;51.676;5.808;2023-06-10T10:42:28;6.47;;;4.03;;
62582;SDS011;48641;51.676;5.808;2023-06-10T10:44:54;7.13;;;4.15;;
62582;SDS011;48641;51.676;5.808;2023-06-10T10:47:21;6.55;;;4.20;;
62582;SDS011;48641;51.676;5.808;2023-06-10T10:49:48;6.75;;;3.92;;
62582;SDS011;48641;51.676;5.808;2023-06-10T10:52:17;7.38;;;4.38;;
62582;SDS011;48641;51.676;5.808;2023-06-10T10:54:43;6.90;;;4.30;;
62582;SDS011;48641;51.676;5.808;2023-06-10T10:59:59;7.85;;;4.22;;
62582;SDS011;48641;51.676;5.808;2023-06-10T11:04:56;6.78;;;4.07;;
62582;SDS011;48641;51.676;5.808;2023-06-10T11:07:24;7.80;;;4.30;;
62582;SDS011;48641;51.676;5.808;2023-06-10T11:12:55;7.13;;;3.90;;
62582;SDS011;48641;51.676;5.808;2023-06-10T11:15:24;7.30;;;4.10;;
62582;SDS011;48641;51.676;5.808;2023-06-10T11:21:20;6.70;;;3.60;;
62582;SDS011;48641;51.676;5.808;2023-06-10T11:31:23;6.97;;;4.18;;
62582;SDS011;48641;51.676;5.808;2023-06-10T11:33:54;6.03;;;3.60;;
62582;SDS011;48641;51.676;5.808;2023-06-10T11:36:31;6.78;;;3.83;;
62582;SDS011;48641;51.676;5.808;2023-06-10T11:41:25;6.45;;;3.60;;
62582;SDS011;48641;51.676;5.808;2023-06-10T11:43:52;7.10;;;4.13;;
62582;SDS011;48641;51.676;5.808;2023-06-10T11:46:19;5.80;;;3.63;;
62582;SDS011;48641;51.676;5.808;2023-06-10T11:48:49;6.30;;;3.75;;
62582;SDS011;48641;51.676;5.808;2023-06-10T11:51:16;6.80;;;3.78;;
62582;SDS011;48641;51.676;5.808;2023-06-10T11:53:43;6.20;;;3.60;;
62582;SDS011;48641;51.676;5.808;2023-06-10T11:56:10;6.63;;;3.60;;
62582;SDS011;48641;51.676;5.808;2023-06-10T11:58:35;6.32;;;3.33;;
62582;SDS011;48641;51.676;5.808;2023-06-10T12:01:01;6.30;;;3.80;;
62582;SDS011;48641;51.676;5.808;2023-06-10T12:03:27;5.95;;;3.70;;
62582;SDS011;48641;51.676;5.808;2023-06-10T12:06:03;6.00;;;3.55;;
62582;SDS011;48641;51.676;5.808;2023-06-10T12:08:30;5.43;;;3.10;;
62582;SDS011;48641;51.676;5.808;2023-06-10T12:10:56;6.18;;;3.70;;
62582;SDS011;48641;51.676;5.808;2023-06-10T12:13:28;5.95;;;3.42;;
62582;SDS011;48641;51.676;5.808;2023-06-10T12:15:53;6.03;;;3.55;;
62582;SDS011;48641;51.676;5.808;2023-06-10T12:18:23;5.70;;;3.45;;
62582;SDS011;48641;51.676;5.808;2023-06-10T12:20:49;6.65;;;3.63;;
62582;SDS011;48641;51.676;5.808;2023-06-10T12:23:16;6.20;;;3.30;;
62582;SDS011;48641;51.676;5.808;2023-06-10T12:25:51;6.30;;;3.50;;
62582;SDS011;48641;51.676;5.808;2023-06-10T12:28:25;5.93;;;3.35;;
62582;SDS011;48641;51.676;5.808;2023-06-10T12:30:52;5.80;;;3.20;;
62582;SDS011;48641;51.676;5.808;2023-06-10T12:33:32;6.25;;;3.42;;
62582;SDS011;48641;51.676;5.808;2023-06-10T12:35:58;6.63;;;3.47;;
62582;SDS011;48641;51.676;5.808;2023-06-10T12:38:24;6.28;;;3.50;;
62582;SDS011;48641;51.676;5.808;2023-06-10T12:40:53;6.13;;;3.22;;
62582;SDS011;48641;51.676;5.808;2023-06-10T12:43:21;5.60;;;3.37;;
62582;SDS011;48641;51.676;5.808;2023-06-10T12:45:48;6.18;;;3.30;;
62582;SDS011;48641;51.676;5.808;2023-06-10T12:48:18;6.07;;;3.60;;
62582;SDS011;48641;51.676;5.808;2023-06-10T12:50:49;6.25;;;3.55;;
62582;SDS011;48641;51.676;5.808;2023-06-10T12:53:17;6.13;;;3.42;;
62582;SDS011;48641;51.676;5.808;2023-06-10T12:55:44;5.95;;;3.40;;
62582;SDS011;48641;51.676;5.808;2023-06-10T12:58:12;6.47;;;3.60;;
62582;SDS011;48641;51.676;5.808;2023-06-10T13:00:39;6.15;;;3.40;;
62582;SDS011;48641;51.676;5.808;2023-06-10T13:03:05;6.25;;;3.22;;
62582;SDS011;48641;51.676;5.808;2023-06-10T13:05:31;5.75;;;3.20;;
62582;SDS011;48641;51.676;5.808;2023-06-10T13:07:57;6.07;;;3.63;;
62582;SDS011;48641;51.676;5.808;2023-06-10T13:10:24;6.22;;;3.47;;
62582;SDS011;48641;51.676;5.808;2023-06-10T13:12:50;5.82;;;3.30;;
62582;SDS011;48641;51.676;5.808;2023-06-10T13:15:16;5.40;;;3.10;;
62582;SDS011;48641;51.676;5.808;2023-06-10T13:17:43;5.82;;;3.65;;
62582;SDS011;48641;51.676;5.808;2023-06-10T13:20:11;6.10;;;3.45;;
62582;SDS011;48641;51.676;5.808;2023-06-10T13:22:37;6.25;;;3.72;;
62582;SDS011;48641;51.676;5.808;2023-06-10T13:25:03;5.85;;;3.33;;
62582;SDS011;48641;51.676;5.808;2023-06-10T13:27:30;5.57;;;3.47;;
62582;SDS011;48641;51.676;5.808;2023-06-10T13:29:56;6.13;;;3.47;;
62582;SDS011;48641;51.676;5.808;2023-06-10T13:32:21;6.10;;;3.50;;
62582;SDS011;48641;51.676;5.808;2023-06-10T13:34:47;6.38;;;3.53;;
62582;SDS011;48641;51.676;5.808;2023-06-10T13:37:14;5.80;;;3.42;;
62582;SDS011;48641;51.676;5.808;2023-06-10T13:39:42;6.50;;;3.50;;
62582;SDS011;48641;51.676;5.808;2023-06-10T13:42:07;5.90;;;3.42;;
62582;SDS011;48641;51.676;5.808;2023-06-10T13:44:33;5.03;;;3.05;;
62582;SDS011;48641;51.676;5.808;2023-06-10T13:47:01;5.45;;;3.15;;
62582;SDS011;48641;51.676;5.808;2023-06-10T13:49:27;5.80;;;3.47;;
62582;SDS011;48641;51.676;5.808;2023-06-10T13:51:53;5.53;;;3.05;;
62582;SDS011;48641;51.676;5.808;2023-06-10T13:54:19;5.80;;;3.53;;
62582;SDS011;48641;51.676;5.808;2023-06-10T13:56:46;5.97;;;3.38;;
62582;SDS011;48641;51.676;5.808;2023-06-10T13:59:12;5.45;;;3.30;;
62582;SDS011;48641;51.676;5.808;2023-06-10T14:01:37;6.43;;;3.50;;
62582;SDS011;48641;51.676;5.808;2023-06-10T14:04:03;5.35;;;3.17;;
62582;SDS011;48641;51.676;5.808;2023-06-10T14:06:29;6.68;;;3.55;;
62582;SDS011;48641;51.676;5.808;2023-06-10T14:08:55;5.47;;;3.28;;
62582;SDS011;48641;51.676;5.808;2023-06-10T14:11:21;5.60;;;3.08;;
62582;SDS011;48641;51.676;5.808;2023-06-10T14:13:47;6.22;;;3.30;;
62582;SDS011;48641;51.676;5.808;2023-06-10T14:16:12;6.63;;;3.13;;
62582;SDS011;48641;51.676;5.808;2023-06-10T14:18:38;5.93;;;3.40;;
62582;SDS011;48641;51.676;5.808;2023-06-10T14:21:04;5.88;;;3.45;;
62582;SDS011;48641;51.676;5.808;2023-06-10T14:23:29;5.78;;;3.40;;
62582;SDS011;48641;51.676;5.808;2023-06-10T14:25:55;6.35;;;3.50;;
62582;SDS011;48641;51.676;5.808;2023-06-10T14:28:20;6.05;;;3.45;;
62582;SDS011;48641;51.676;5.808;2023-06-10T14:30:46;6.00;;;3.30;;
62582;SDS011;48641;51.676;5.808;2023-06-10T14:33:11;5.80;;;3.22;;
62582;SDS011;48641;51.676;5.808;2023-06-10T14:35:37;6.05;;;3.20;;
62582;SDS011;48641;51.676;5.808;2023-06-10T14:38:03;5.50;;;3.28;;
62582;SDS011;48641;51.676;5.808;2023-06-10T14:40:29;5.68;;;3.10;;
62582;SDS011;48641;51.676;5.808;2023-06-10T14:42:55;5.95;;;3.30;;
62582;SDS011;48641;51.676;5.808;2023-06-10T14:45:20;5.07;;;3.10;;
62582;SDS011;48641;51.676;5.808;2023-06-10T14:47:46;5.30;;;3.17;;
62582;SDS011;48641;51.676;5.808;2023-06-10T14:50:13;7.78;;;3.70;;
62582;SDS011;48641;51.676;5.808;2023-06-10T14:52:38;6.07;;;3.28;;
62582;SDS011;48641;51.676;5.808;2023-06-10T14:55:05;5.60;;;3.35;;
62582;SDS011;48641;51.676;5.808;2023-06-10T14:57:31;5.53;;;3.33;;
62582;SDS011;48641;51.676;5.808;2023-06-10T14:59:56;5.88;;;3.42;;
62582;SDS011;48641;51.676;5.808;2023-06-10T15:02:22;5.70;;;3.38;;
62582;SDS011;48641;51.676;5.808;2023-06-10T15:04:48;5.75;;;3.22;;
62582;SDS011;48641;51.676;5.808;2023-06-10T15:07:13;5.95;;;3.40;;
62582;SDS011;48641;51.676;5.808;2023-06-10T15:09:42;6.40;;;3.75;;
62582;SDS011;48641;51.676;5.808;2023-06-10T15:12:08;6.05;;;3.40;;
62582;SDS011;48641;51.676;5.808;2023-06-10T15:14:35;5.68;;;3.20;;
62582;SDS011;48641;51.676;5.808;2023-06-10T15:17:01;6.32;;;3.35;;
62582;SDS011;48641;51.676;5.808;2023-06-10T15:19:27;6.05;;;3.42;;
62582;SDS011;48641;51.676;5.808;2023-06-10T15:21:53;5.78;;;3.50;;
62582;SDS011;48641;51.676;5.808;2023-06-10T15:24:19;6.18;;;3.60;;